M I D A S
Marine Information and Data Acquisition System
Tripno 1525 of the Zeeleeuw from 2008-07-24 07:07:13 to 2008-07-24 14:32:29
Back to CruiseResearch ActivitiesStationsMapUnderway DataData graphs

EquipmentUnitsComment
TimeDGPSUTC
LatitudeDGPSDM.mWGS84
LongitudeDGPSDM.mWGS84
HeadingGyrodeg 
SOGDGPSknotsSpeed over ground
COGDGPSdegCourse over ground
DepthEcho soundermeters200 kHz
Missing or incorrect values are displayed as -999
Navigation data collected by the RV Zeeleeuw from 2008-07-24 07:07:16 to 2008-07-24 14:45:47
Time Latitude Longitude Heading SOG COG Depth
2008-07-24 07:08:20 51°13.627 2°56.023 111.9 2.2 293 -999
2008-07-24 07:09:21 51°13.652 2°55.944 113.9 4 292 -999
2008-07-24 07:10:21 51°13.681 2°55.848 125.4 4.2 307 -999
2008-07-24 07:11:20 51°13.729 2°55.759 126.5 4.5 308 -999
2008-07-24 07:12:20 51°13.757 2°55.686 104.6 1 306 10.9
2008-07-24 07:13:17 51°13.768 2°55.698 48.5 0.6 270 10.7
2008-07-24 07:14:21 51°13.77 2°55.676 1.4 3.4 352 -999
2008-07-24 07:15:19 51°13.868 2°55.613 337.6 8.2 337 11.1
2008-07-24 07:16:16 51°13.98 2°55.533 334.8 7.2 333 11.1
2008-07-24 07:17:17 51°14.083 2°55.449 334.5 6.8 334 11.4
2008-07-24 07:18:17 51°14.207 2°55.325 323.9 9.9 321 11.3
2008-07-24 07:19:17 51°14.33 2°55.131 313.8 11.1 311 11.1
2008-07-24 07:20:17 51°14.435 2°54.864 301.4 12.3 297 11.1
2008-07-24 07:21:17 51°14.526 2°54.567 298.9 12.5 296 11.3
2008-07-24 07:22:17 51°14.609 2°54.265 295.3 12.5 294 11.1
2008-07-24 07:23:17 51°14.699 2°53.966 299.7 12.3 298 11.4
2008-07-24 07:24:17 51°14.797 2°53.679 300.2 12.3 298 10.7
2008-07-24 07:25:17 51°14.893 2°53.393 299.3 12.2 296 10.4
2008-07-24 07:26:17 51°14.987 2°53.104 300.4 12.3 298 10.5
2008-07-24 07:27:18 51°15.082 2°52.808 300.5 12.4 297 10.8
2008-07-24 07:28:17 51°15.175 2°52.521 300.9 12.3 298 10.9
2008-07-24 07:29:17 51°15.273 2°52.231 301 12.5 299 11.5
2008-07-24 07:30:17 51°15.373 2°51.94 301.7 12.5 299 12
2008-07-24 07:31:17 51°15.473 2°51.649 301.1 12.5 299 12.4
2008-07-24 07:32:18 51°15.58 2°51.357 304 12.5 301 12.6
2008-07-24 07:33:17 51°15.684 2°51.078 303.7 12.4 301 12.9
2008-07-24 07:34:17 51°15.783 2°50.789 299.4 12.5 296 13
2008-07-24 07:35:17 51°15.88 2°50.496 302.9 12.5 301 12.8
2008-07-24 07:36:17 51°16.01 2°50.243 320.7 12.3 319 10.2
2008-07-24 07:37:17 51°16.179 2°50.063 336.1 12.2 333 10.7
2008-07-24 07:38:17 51°16.362 2°49.919 339.3 12.2 336 11
2008-07-24 07:39:17 51°16.547 2°49.785 338.7 12.2 335 12.8
2008-07-24 07:40:17 51°16.695 2°49.698 352.5 6.1 346 13.8
2008-07-24 07:41:18 51°16.749 2°49.682 25.2 1.1 342 12.1
2008-07-24 07:42:17 51°16.755 2°49.668 42 1.3 25 11.8
2008-07-24 07:43:16 51°16.764 2°49.672 73.7 0.3 326 12.3
2008-07-24 07:44:16 51°16.767 2°49.665 78.4 0.5 309 12.1
2008-07-24 07:45:16 51°16.769 2°49.653 78.2 0.5 285 11.6
2008-07-24 07:46:16 51°16.77 2°49.636 71.1 0.7 272 11.2
2008-07-24 07:47:16 51°16.77 2°49.614 58.4 0.9 272 10.9
2008-07-24 07:48:16 51°16.77 2°49.59 44.8 0.9 266 10.8
2008-07-24 07:49:17 51°16.769 2°49.564 33.2 1 265 10.8
2008-07-24 07:50:17 51°16.772 2°49.542 24 1.5 351 10.8
2008-07-24 07:51:16 51°16.874 2°49.478 340.6 10.5 336 9.1
2008-07-24 07:52:18 51°17.055 2°49.333 334.9 12.2 331 11
2008-07-24 07:53:16 51°17.223 2°49.17 331.6 12.3 328 11.5
2008-07-24 07:54:16 51°17.396 2°49.001 331.7 12.2 328 11.7
2008-07-24 07:55:16 51°17.571 2°48.833 332.7 12.2 328 11.5
2008-07-24 07:56:17 51°17.748 2°48.664 333.2 12.2 328 10.1
2008-07-24 07:57:16 51°17.92 2°48.501 333.7 12.3 329 9.6
2008-07-24 07:58:16 51°18.097 2°48.334 334.2 12.3 330 9.9
2008-07-24 07:59:18 51°18.28 2°48.162 333.7 12.4 330 10.7
2008-07-24 08:00:17 51°18.454 2°47.997 334.3 12.4 329 13
2008-07-24 08:01:18 51°18.635 2°47.826 335.5 12.4 331 14.7
2008-07-24 08:02:16 51°18.809 2°47.673 336.5 12.3 330 16.1
2008-07-24 08:03:18 51°18.991 2°47.498 335.1 12.4 329 18.7
2008-07-24 08:04:17 51°19.165 2°47.327 332.5 12.5 329 20.2
2008-07-24 08:05:17 51°19.343 2°47.155 332.3 12.5 330 20.9
2008-07-24 08:06:16 51°19.519 2°46.994 332.8 12.3 329 20.9
2008-07-24 08:07:17 51°19.699 2°46.83 332.9 12.3 331 20.2
2008-07-24 08:08:18 51°19.881 2°46.668 335.6 12.3 333 18.1
2008-07-24 08:09:16 51°20.054 2°46.511 331.8 12.4 329 14.7
2008-07-24 08:10:18 51°20.238 2°46.337 332.3 12.5 329 14.1
2008-07-24 08:11:16 51°20.413 2°46.175 332.9 12.6 330 20
2008-07-24 08:12:17 51°20.596 2°46.004 332.1 12.5 329 21.7
2008-07-24 08:13:16 51°20.773 2°45.841 333.8 12.6 330 24.9
2008-07-24 08:14:16 51°20.958 2°45.688 336.3 12.5 334 24.6
2008-07-24 08:15:18 51°21.149 2°45.531 333.1 12.4 331 25.4
2008-07-24 08:16:16 51°21.32 2°45.369 331.4 12.4 328 25.2
2008-07-24 08:17:18 51°21.505 2°45.198 332.7 12.5 330 23.6
2008-07-24 08:18:17 51°21.683 2°45.036 333 12.6 330 22
2008-07-24 08:19:17 51°21.863 2°44.869 332.4 12.6 331 20.8
2008-07-24 08:20:17 51°22.045 2°44.705 333.3 12.5 331 22.1
2008-07-24 08:21:18 51°22.228 2°44.539 332.4 12.4 331 24.1
2008-07-24 08:22:17 51°22.404 2°44.376 332.4 12.5 331 25.1
2008-07-24 08:23:17 51°22.583 2°44.21 332.8 12.4 330 25.1
2008-07-24 08:24:17 51°22.761 2°44.043 333.5 12.4 332 24.8
2008-07-24 08:25:17 51°22.942 2°43.884 336 12.4 332 26.1
2008-07-24 08:26:17 51°23.123 2°43.722 334.4 12.5 330 25.6
2008-07-24 08:27:17 51°23.302 2°43.554 334 12.6 330 25.7
2008-07-24 08:28:18 51°23.486 2°43.382 332.5 12.5 329 25.7
2008-07-24 08:29:17 51°23.664 2°43.223 334.5 12.5 331 25.3
2008-07-24 08:30:17 51°23.844 2°43.058 332.1 12.4 330 25.2
2008-07-24 08:31:17 51°24.022 2°42.892 333.3 12.4 332 26
2008-07-24 08:32:17 51°24.203 2°42.731 332.2 12.5 330 24.1
2008-07-24 08:33:17 51°24.384 2°42.566 335 12.5 333 23.3
2008-07-24 08:34:17 51°24.565 2°42.409 333.5 12.4 329 19.4
2008-07-24 08:35:18 51°24.749 2°42.244 334.2 12.5 331 24.7
2008-07-24 08:36:17 51°24.926 2°42.083 333.2 12.4 330 22.7
2008-07-24 08:37:17 51°25.108 2°41.931 336 12.3 334 24.6
2008-07-24 08:38:17 51°25.289 2°41.777 335.4 12.4 331 24.6
2008-07-24 08:39:17 51°25.469 2°41.613 333.8 12.4 331 25.3
2008-07-24 08:40:17 51°25.649 2°41.45 334.1 12.5 331 27.4
2008-07-24 08:41:18 51°25.831 2°41.281 333.9 12.5 330 24.7
2008-07-24 08:42:18 51°26.012 2°41.121 336 12.5 332 27.5
2008-07-24 08:43:17 51°26.19 2°40.963 335.3 12.4 331 29.3
2008-07-24 08:44:18 51°26.373 2°40.799 334 12.4 330 29.7
2008-07-24 08:45:17 51°26.55 2°40.635 334.3 12.5 331 30
2008-07-24 08:46:18 51°26.739 2°40.491 346.7 12.3 343 30.3
2008-07-24 08:47:17 51°26.936 2°40.458 4.1 12.1 359 31
2008-07-24 08:48:18 51°27.14 2°40.459 4.9 12.1 -999 31.3
2008-07-24 08:49:17 51°27.336 2°40.466 4.3 12.1 -999 30.4
2008-07-24 08:50:18 51°27.541 2°40.461 3.7 12.1 359 30
2008-07-24 08:51:17 51°27.738 2°40.46 4.8 12.1 -999 26.8
2008-07-24 08:52:17 51°27.938 2°40.481 13.9 12.1 11 31.3
2008-07-24 08:53:18 51°28.128 2°40.581 32 11.7 30 32.1
2008-07-24 08:54:17 51°28.287 2°40.752 36.9 11.8 33 31.4
2008-07-24 08:55:18 51°28.452 2°40.931 39.3 11.7 35 31.4
2008-07-24 08:56:18 51°28.613 2°41.105 36.7 11.7 33 30.4
2008-07-24 08:57:17 51°28.772 2°41.279 38.2 11.7 35 30.8
2008-07-24 08:58:18 51°28.937 2°41.456 35.2 11.8 31 29.1
2008-07-24 08:59:18 51°29.092 2°41.641 43.7 11.7 41 31.3
2008-07-24 09:00:18 51°29.24 2°41.841 42.9 11.7 40 30.7
2008-07-24 09:01:18 51°29.368 2°42.073 56.2 11.7 54 31
2008-07-24 09:02:18 51°29.488 2°42.317 53.1 11.7 50 33.8
2008-07-24 09:03:17 51°29.609 2°42.553 53.5 11.6 51 33
2008-07-24 09:04:17 51°29.725 2°42.802 55.5 11.7 53 33.5
2008-07-24 09:05:17 51°29.843 2°43.048 55.2 11.6 53 28.6
2008-07-24 09:06:17 51°29.957 2°43.295 56.7 11.5 54 30.4
2008-07-24 09:07:18 51°30.068 2°43.55 58.7 11.4 58 27.7
2008-07-24 09:08:17 51°30.159 2°43.811 65.1 11.4 65 30.8
2008-07-24 09:09:17 51°30.249 2°44.077 63.8 11.3 61 33.3
2008-07-24 09:10:17 51°30.334 2°44.345 62.9 11.3 62 30.7
2008-07-24 09:11:16 51°30.43 2°44.598 60.1 11.3 58 30.4
2008-07-24 09:12:17 51°30.529 2°44.859 61.5 11.3 59 30.7
2008-07-24 09:13:18 51°30.622 2°45.126 60.8 11.3 58 31.6
2008-07-24 09:14:18 51°30.718 2°45.384 62.3 11.3 60 30.5
2008-07-24 09:15:18 51°30.812 2°45.646 60.1 11.3 58 34.1
2008-07-24 09:16:18 51°30.912 2°45.9 60.3 11.2 58 30.3
2008-07-24 09:17:17 51°31.008 2°46.152 60.6 11.2 59 31.4
2008-07-24 09:18:18 51°31.099 2°46.418 63 11.2 61 26.9
2008-07-24 09:19:17 51°31.194 2°46.67 62.7 11.2 61 26.3
2008-07-24 09:20:17 51°31.287 2°46.93 60.3 11.2 57 27
2008-07-24 09:21:17 51°31.384 2°47.186 62.1 11.3 61 27.8
2008-07-24 09:22:17 51°31.474 2°47.451 63 11.3 61 26.9
2008-07-24 09:23:18 51°31.566 2°47.719 62.4 11.3 61 29.9
2008-07-24 09:24:18 51°31.661 2°47.978 58.5 11.2 56 31
2008-07-24 09:25:18 51°31.768 2°48.224 56.8 11.2 55 30.5
2008-07-24 09:26:18 51°31.87 2°48.47 58 11 56 33.4
2008-07-24 09:27:18 51°31.966 2°48.72 62.3 11 62 26.9
2008-07-24 09:28:16 51°32.049 2°48.972 63.5 11.1 62 31.5
2008-07-24 09:29:16 51°32.135 2°49.234 62.8 11.1 62 30.1
2008-07-24 09:30:17 51°32.23 2°49.492 59.4 11 58 29.6
2008-07-24 09:31:17 51°32.326 2°49.744 59.8 11 59 28.4
2008-07-24 09:32:17 51°32.419 2°49.997 60.2 11 60 29.7
2008-07-24 09:33:17 51°32.512 2°50.25 60.3 11 60 30.7
2008-07-24 09:34:18 51°32.605 2°50.511 60.7 11 60 28.6
2008-07-24 09:35:17 51°32.689 2°50.768 63.5 11.1 63 31.4
2008-07-24 09:36:18 51°32.78 2°51.031 61.3 11.1 60 30.9
2008-07-24 09:37:18 51°32.877 2°51.279 57.5 11 56 30.9
2008-07-24 09:38:18 51°32.977 2°51.526 58.7 11 58 29.1
2008-07-24 09:39:17 51°33.07 2°51.774 59.4 11 58 30.7
2008-07-24 09:40:18 51°33.168 2°52.032 61.4 11.2 62 32.2
2008-07-24 09:41:18 51°33.261 2°52.289 60 11.1 59 29.9
2008-07-24 09:42:17 51°33.357 2°52.539 59.4 11.1 58 30.2
2008-07-24 09:43:18 51°33.451 2°52.8 62.7 11.1 62 28.5
2008-07-24 09:44:17 51°33.54 2°53.055 60 11.1 58 29.8
2008-07-24 09:45:18 51°33.64 2°53.312 59.3 11.2 59 30.2
2008-07-24 09:46:17 51°33.73 2°53.567 60.2 11.1 58 29.9
2008-07-24 09:47:17 51°33.827 2°53.82 59.4 11.1 59 29.5
2008-07-24 09:48:18 51°33.924 2°54.075 59.5 10.9 59 28.9
2008-07-24 09:49:18 51°34.016 2°54.326 59.4 10.9 60 29.6
2008-07-24 09:50:18 51°34.104 2°54.582 62.8 10.9 62 29.2
2008-07-24 09:51:18 51°34.188 2°54.841 62 11 63 28.8
2008-07-24 09:52:18 51°34.276 2°55.097 59.3 10.9 59 28.3
2008-07-24 09:53:17 51°34.369 2°55.342 58.2 10.9 59 30.2
2008-07-24 09:54:18 51°34.464 2°55.596 60 11 60 31.5
2008-07-24 09:55:17 51°34.555 2°55.844 59.6 11 60 31
2008-07-24 09:56:18 51°34.646 2°56.104 59.8 11 60 30.4
2008-07-24 09:57:17 51°34.737 2°56.351 59.3 11 59 32.2
2008-07-24 09:58:18 51°34.831 2°56.607 59.6 10.9 60 32
2008-07-24 09:59:18 51°34.921 2°56.863 62.6 11 64 31.9
2008-07-24 10:00:18 51°35.012 2°57.115 59.8 10.9 59 31.9
2008-07-24 10:01:17 51°35.102 2°57.361 59.4 10.8 60 33
2008-07-24 10:02:18 51°35.195 2°57.612 59.5 10.7 59 33.1
2008-07-24 10:03:18 51°35.287 2°57.861 60.4 10.8 62 31.6
2008-07-24 10:04:18 51°35.366 2°58.119 66.2 10.8 73 31.1
2008-07-24 10:05:18 51°35.35 2°58.407 98.1 11.2 106 28.4
2008-07-24 10:06:18 51°35.284 2°58.691 106 11.4 112 29.3
2008-07-24 10:07:17 51°35.205 2°58.961 118.2 11.6 125 28.7
2008-07-24 10:08:16 51°35.089 2°59.204 124 11.7 129 26.7
2008-07-24 10:09:16 51°34.971 2°59.452 123.7 11.7 127 28.6
2008-07-24 10:10:18 51°34.844 2°59.705 129.8 11.9 135 25.8
2008-07-24 10:11:17 51°34.694 2°59.904 135.7 11.8 141 23.6
2008-07-24 10:12:17 51°34.539 3°0.104 136.1 11.9 140 19.2
2008-07-24 10:13:17 51°34.36 3°0.215 180.1 12.2 193 16.4
2008-07-24 10:14:17 51°34.197 3°0.005 222.9 13.1 223 17.3
2008-07-24 10:15:18 51°34.022 2°59.787 214.8 13.2 216 17.6
2008-07-24 10:16:17 51°33.843 2°59.595 212.9 13.2 214 15.1
2008-07-24 10:17:17 51°33.665 2°59.391 216.6 13.1 217 16.8
2008-07-24 10:18:17 51°33.488 2°59.184 217.1 13.1 217 16.2
2008-07-24 10:19:17 51°33.312 2°58.974 217.9 13 217 13.8
2008-07-24 10:20:18 51°33.137 2°58.754 219.6 13.2 218 13.7
2008-07-24 10:21:17 51°32.97 2°58.535 219.8 13.1 219 14.3
2008-07-24 10:22:17 51°32.797 2°58.318 218.8 13.3 218 12.7
2008-07-24 10:23:17 51°32.625 2°58.096 219.2 13.3 217 15.2
2008-07-24 10:24:17 51°32.454 2°57.87 223.1 13.3 219 15
2008-07-24 10:25:17 51°32.289 2°57.632 228 13.4 227 16
2008-07-24 10:26:17 51°32.126 2°57.389 225.8 13.3 222 15.9
2008-07-24 10:27:17 51°31.969 2°57.139 229.3 13.3 226 13.5
2008-07-24 10:28:17 51°31.809 2°56.89 227.6 13.3 222 15.8
2008-07-24 10:29:17 51°31.673 2°56.609 244.2 13.4 239 15.4
2008-07-24 10:30:17 51°31.552 2°56.31 242.2 13.4 235 15.5
2008-07-24 10:31:17 51°31.431 2°56.01 246.2 13.4 241 17.5
2008-07-24 10:32:17 51°31.327 2°55.693 252.5 13.4 245 16.3
2008-07-24 10:33:17 51°31.222 2°55.376 250.3 13.6 240 15.5
2008-07-24 10:34:17 51°31.117 2°55.056 251.8 13.5 244 15.3
2008-07-24 10:35:17 51°31.009 2°54.737 250.3 13.6 242 15.4
2008-07-24 10:36:17 51°30.895 2°54.424 248.9 13.6 240 17.9
2008-07-24 10:37:17 51°30.787 2°54.105 251.4 13.7 241 20
2008-07-24 10:38:17 51°30.678 2°53.784 250.4 13.6 244 23.4
2008-07-24 10:39:17 51°30.577 2°53.464 249.1 13.4 240 25.7
2008-07-24 10:40:17 51°30.476 2°53.144 250.6 13.5 243 26
2008-07-24 10:41:17 51°30.372 2°52.822 249.4 13.7 241 27
2008-07-24 10:42:17 51°30.263 2°52.502 251.5 13.6 242 27.4
2008-07-24 10:43:17 51°30.154 2°52.184 250.8 13.6 242 28.7
2008-07-24 10:44:18 51°30.048 2°51.857 250.4 13.5 241 29
2008-07-24 10:45:18 51°29.938 2°51.54 250.4 13.6 242 29.4
2008-07-24 10:46:17 51°29.829 2°51.229 249.4 13.6 241 29.1
2008-07-24 10:47:17 51°29.721 2°50.908 252 13.6 243 28.4
2008-07-24 10:48:17 51°29.615 2°50.584 249 13.7 242 29.6
2008-07-24 10:49:17 51°29.505 2°50.265 249.5 13.6 242 29.7
2008-07-24 10:50:17 51°29.395 2°49.944 250.3 13.8 244 28.8
2008-07-24 10:51:17 51°29.29 2°49.618 250.6 13.7 241 28.3
2008-07-24 10:52:17 51°29.185 2°49.29 249.8 13.9 242 25.6
2008-07-24 10:53:18 51°29.08 2°48.953 250.9 13.9 243 26.1
2008-07-24 10:54:18 51°28.978 2°48.62 252.4 13.9 245 26.8
2008-07-24 10:55:18 51°28.878 2°48.288 249 13.8 242 27.5
2008-07-24 10:56:18 51°28.777 2°47.959 251.8 13.8 246 27.7
2008-07-24 10:57:17 51°28.684 2°47.627 251 13.9 246 27.9
2008-07-24 10:58:18 51°28.586 2°47.283 250.4 13.9 245 26.6
2008-07-24 10:59:17 51°28.487 2°46.956 248.5 14 244 26.2
2008-07-24 11:00:18 51°28.39 2°46.611 250 14.1 246 26.4
2008-07-24 11:01:18 51°28.298 2°46.271 251.7 13.9 247 26.5
2008-07-24 11:02:17 51°28.212 2°45.932 252.2 14 248 25.8
2008-07-24 11:03:18 51°28.115 2°45.586 248.1 14 245 26.5
2008-07-24 11:04:17 51°28.023 2°45.252 250.1 13.9 247 25.4
2008-07-24 11:05:18 51°27.93 2°44.905 250.3 13.8 246 25.9
2008-07-24 11:06:17 51°27.841 2°44.568 250.8 14 249 24.4
2008-07-24 11:07:18 51°27.752 2°44.217 249 14 247 26.7
2008-07-24 11:08:18 51°27.671 2°43.865 252.7 14.1 250 27.5
2008-07-24 11:09:18 51°27.555 2°43.544 227.8 13.9 226 29.1
2008-07-24 11:10:18 51°27.36 2°43.388 185.1 13.1 192 27
2008-07-24 11:11:17 51°27.155 2°43.403 156.2 12.3 165 26.5
2008-07-24 11:12:18 51°26.982 2°43.56 135.5 11.7 145 27.3
2008-07-24 11:13:17 51°26.814 2°43.722 139.6 12 151 21.7
2008-07-24 11:14:18 51°26.658 2°43.916 125.4 11.6 137 24.3
2008-07-24 11:15:18 51°26.535 2°44.141 110.2 11 121 24.2
2008-07-24 11:16:18 51°26.495 2°44.414 90.1 10.5 98 26.5
2008-07-24 11:17:18 51°26.522 2°44.679 68.3 10.2 72 25.3
2008-07-24 11:18:18 51°26.562 2°44.945 73.2 10.3 79 26.8
2008-07-24 11:19:18 51°26.591 2°45.215 74.5 10.3 81 27
2008-07-24 11:20:17 51°26.629 2°45.477 69.1 10.2 75 27.8
2008-07-24 11:21:18 51°26.67 2°45.745 70.4 10.3 76 28.1
2008-07-24 11:22:17 51°26.704 2°46.007 68 10.1 69 27.5
2008-07-24 11:23:18 51°26.78 2°46.253 60.1 10.2 63 29.7
2008-07-24 11:24:18 51°26.85 2°46.498 60.9 10.1 65 25.9
2008-07-24 11:25:18 51°26.913 2°46.749 63.8 10.2 68 24.8
2008-07-24 11:26:18 51°26.991 2°46.988 57.9 10.1 61 24.4
2008-07-24 11:27:17 51°27.056 2°47.233 63.8 10.2 69 25.6
2008-07-24 11:28:18 51°27.121 2°47.487 62.5 10.2 68 26.9
2008-07-24 11:29:17 51°27.184 2°47.734 61.1 10.2 68 25.9
2008-07-24 11:30:18 51°27.247 2°47.991 61.7 10.2 69 25.9
2008-07-24 11:31:18 51°27.312 2°48.242 58.6 10.2 64 27.7
2008-07-24 11:32:17 51°27.38 2°48.486 60.5 10.2 67 25.7
2008-07-24 11:33:18 51°27.448 2°48.74 57.4 10.2 64 25.1
2008-07-24 11:34:18 51°27.521 2°48.984 57.7 10.2 64 24.2
2008-07-24 11:35:17 51°27.59 2°49.228 58.2 10.2 66 24.7
2008-07-24 11:36:17 51°27.658 2°49.475 58.4 10.1 66 23.9
2008-07-24 11:37:18 51°27.723 2°49.732 62.2 10.4 70 26.3
2008-07-24 11:38:17 51°27.792 2°49.979 58.8 10.3 66 27.4
2008-07-24 11:39:18 51°27.864 2°50.235 58.7 10.4 66 26.7
2008-07-24 11:40:17 51°27.934 2°50.483 57.5 10.4 66 27.2
2008-07-24 11:41:17 51°28.006 2°50.733 57.5 10.3 64 27.2
2008-07-24 11:42:18 51°28.085 2°50.982 54.6 10.2 62 25.3
2008-07-24 11:43:18 51°28.162 2°51.227 55.7 10.2 64 25
2008-07-24 11:44:18 51°28.238 2°51.473 56 10.3 64 25.1
2008-07-24 11:45:17 51°28.31 2°51.718 56.5 10.3 65 26.2
2008-07-24 11:46:17 51°28.382 2°51.967 57.3 10.3 66 26
2008-07-24 11:47:17 51°28.454 2°52.216 57 10.3 66 26.3
2008-07-24 11:48:17 51°28.524 2°52.468 56.5 10.4 65 25.3
2008-07-24 11:49:17 51°28.599 2°52.718 57.5 10.4 65 24.8
2008-07-24 11:50:17 51°28.672 2°52.97 54.5 10.4 62 24.8
2008-07-24 11:51:18 51°28.751 2°53.222 56.3 10.4 66 25.4
2008-07-24 11:52:18 51°28.821 2°53.475 56.4 10.4 65 25.5
2008-07-24 11:53:18 51°28.9 2°53.72 54.1 10.3 61 25.5
2008-07-24 11:54:17 51°28.977 2°53.961 56.5 10.4 64 25.3
2008-07-24 11:55:17 51°29.063 2°54.198 52.2 10.3 59 25.5
2008-07-24 11:56:17 51°29.146 2°54.44 55.1 10.4 62 26.3
2008-07-24 11:57:17 51°29.229 2°54.684 54 10.4 60 27.3
2008-07-24 11:58:17 51°29.32 2°54.919 51.6 10.4 58 26.3
2008-07-24 11:59:17 51°29.409 2°55.155 54.6 10.3 62 25.5
2008-07-24 12:00:18 51°29.494 2°55.403 55.1 10.4 62 26.6
2008-07-24 12:01:17 51°29.578 2°55.64 55 10.3 61 26.6
2008-07-24 12:02:17 51°29.672 2°55.872 51.8 10.4 57 27.3
2008-07-24 12:03:17 51°29.766 2°56.105 52.2 10.3 56 26.9
2008-07-24 12:04:18 51°29.859 2°56.344 53.6 10.4 59 27.8
2008-07-24 12:05:18 51°29.952 2°56.579 53.5 10.5 58 27.5
2008-07-24 12:06:17 51°30.037 2°56.817 56.5 10.5 61 27.5
2008-07-24 12:07:18 51°30.127 2°57.063 55.6 10.4 59 26.9
2008-07-24 12:08:18 51°30.22 2°57.299 52.8 10.5 55 26.5
2008-07-24 12:09:18 51°30.315 2°57.533 56.5 10.4 59 26.9
2008-07-24 12:10:17 51°30.396 2°57.776 59.5 10.6 63 27.4
2008-07-24 12:11:17 51°30.481 2°58.023 58 10.6 61 27.7
2008-07-24 12:12:18 51°30.574 2°58.265 55.1 10.5 57 27.4
2008-07-24 12:13:18 51°30.669 2°58.501 55.5 10.5 57 27.2
2008-07-24 12:14:17 51°30.757 2°58.739 58.9 10.5 61 27.1
2008-07-24 12:15:18 51°30.837 2°58.994 61.4 10.5 62 26.8
2008-07-24 12:16:18 51°30.927 2°59.236 58.1 10.6 59 27
2008-07-24 12:17:18 51°31.01 2°59.484 60.5 10.5 61 27
2008-07-24 12:18:18 51°31.095 2°59.727 59.7 10.4 61 27.1
2008-07-24 12:19:17 51°31.18 2°59.966 60.1 10.6 61 27
2008-07-24 12:20:17 51°31.272 3°0.204 56.3 10.5 56 26.9
2008-07-24 12:21:18 51°31.365 3°0.444 59.9 10.5 59 26.3
2008-07-24 12:22:18 51°31.461 3°0.677 58.1 10.5 58 25.7
2008-07-24 12:23:18 51°31.554 3°0.911 58 10.4 57 26.2
2008-07-24 12:24:18 51°31.649 3°1.143 58.5 10.4 57 26.8
2008-07-24 12:25:18 51°31.743 3°1.377 58.8 10.4 57 25.5
2008-07-24 12:26:17 51°31.83 3°1.613 61.5 10.5 60 25.6
2008-07-24 12:27:17 51°31.925 3°1.848 58.1 10.5 56 26.5
2008-07-24 12:28:18 51°32.023 3°2.084 58.8 10.5 56 26.2
2008-07-24 12:29:18 51°32.117 3°2.321 61.5 10.5 59 26.4
2008-07-24 12:30:18 51°32.21 3°2.554 58.1 10.3 56 26.1
2008-07-24 12:31:17 51°32.302 3°2.785 61.4 10.4 59 27
2008-07-24 12:32:18 51°32.4 3°3.021 57.6 10.4 54 27.3
2008-07-24 12:33:18 51°32.445 3°3.282 87 10.7 90 27.5
2008-07-24 12:34:18 51°32.426 3°3.568 102.6 11 106 29.9
2008-07-24 12:35:17 51°32.338 3°3.824 129.7 11.7 138 30.2
2008-07-24 12:36:17 51°32.142 3°3.896 179.4 13 182 28.6
2008-07-24 12:37:18 51°31.919 3°3.854 190 13.4 194 28.5
2008-07-24 12:38:18 51°31.717 3°3.701 210 13.6 211 28.1
2008-07-24 12:39:18 51°31.542 3°3.466 226 13.8 222 28.1
2008-07-24 12:40:17 51°31.382 3°3.21 229.7 13.9 227 27.7
2008-07-24 12:41:18 51°31.22 3°2.939 228.8 13.8 226 27.9
2008-07-24 12:42:17 51°31.064 3°2.672 229.3 13.9 228 27.9
2008-07-24 12:43:18 51°30.917 3°2.377 237.2 14 234 27.8
2008-07-24 12:44:17 51°30.781 3°2.082 237.2 14.1 234 27.3
2008-07-24 12:45:18 51°30.64 3°1.779 236.5 13.9 233 27.2
2008-07-24 12:46:18 51°30.501 3°1.481 235.7 14 234 27
2008-07-24 12:47:17 51°30.374 3°1.18 241 13.9 236 27.2
2008-07-24 12:48:18 51°30.243 3°0.868 238.8 13.8 236 27.5
2008-07-24 12:49:18 51°30.115 3°0.56 240.9 13.8 237 27.4
2008-07-24 12:50:18 51°29.991 3°0.247 241.1 13.9 239 27
2008-07-24 12:51:17 51°29.866 2°59.942 238.3 13.9 236 26.8
2008-07-24 12:52:18 51°29.736 2°59.63 239.6 13.8 238 27.1
2008-07-24 12:53:17 51°29.612 2°59.323 240.2 14 239 27.2
2008-07-24 12:54:18 51°29.491 2°58.997 242.2 14.1 240 27
2008-07-24 12:55:18 51°29.372 2°58.678 240.5 13.8 238 25.4
2008-07-24 12:56:18 51°29.25 2°58.361 240.5 14 240 26.7
2008-07-24 12:57:18 51°29.13 2°58.041 241.3 14 239 26.1
2008-07-24 12:58:18 51°29.012 2°57.719 241.5 14 240 26.6
2008-07-24 12:59:18 51°28.894 2°57.398 241.1 14 239 25.3
2008-07-24 13:00:18 51°28.773 2°57.078 241.4 14.1 240 26.6
2008-07-24 13:01:18 51°28.655 2°56.757 240.4 14 240 26.2
2008-07-24 13:02:17 51°28.536 2°56.441 238.8 14.1 239 25.7
2008-07-24 13:03:18 51°28.42 2°56.109 240.4 14.1 243 26.3
2008-07-24 13:04:18 51°28.31 2°55.778 242 14.1 244 26.5
2008-07-24 13:05:18 51°28.201 2°55.446 240.6 14.1 242 25.4
2008-07-24 13:06:18 51°28.094 2°55.111 244.2 14.1 244 24.5
2008-07-24 13:07:17 51°27.99 2°54.782 242 14.1 243 24
2008-07-24 13:08:18 51°27.885 2°54.441 243 14 243 21.7
2008-07-24 13:09:17 51°27.775 2°54.118 240.1 14 241 21.2
2008-07-24 13:10:18 51°27.667 2°53.783 241.8 13.6 243 23
2008-07-24 13:11:17 51°27.56 2°53.466 242.4 13.8 241 20.4
2008-07-24 13:12:18 51°27.445 2°53.142 241.3 13.7 241 22.1
2008-07-24 13:13:17 51°27.334 2°52.83 240.1 13.7 240 21.4
2008-07-24 13:14:18 51°27.213 2°52.512 238.7 13.7 239 20.5
2008-07-24 13:15:17 51°27.094 2°52.209 238.5 13.6 239 20.7
2008-07-24 13:16:18 51°26.969 2°51.898 237.1 13.6 237 24.3
2008-07-24 13:17:18 51°26.845 2°51.597 235.8 13.5 237 24.2
2008-07-24 13:18:17 51°26.723 2°51.298 236.7 13.6 237 24.2
2008-07-24 13:19:18 51°26.598 2°50.99 236 13.5 238 24.2
2008-07-24 13:20:18 51°26.478 2°50.687 236.5 13.5 237 23.5
2008-07-24 13:21:17 51°26.362 2°50.384 237.6 13.6 240 23.5
2008-07-24 13:22:18 51°26.24 2°50.075 233.4 13.5 232 23.5
2008-07-24 13:23:18 51°26.094 2°49.802 222.1 13.6 225 23.3
2008-07-24 13:24:18 51°25.928 2°49.555 218.7 13.7 222 23.2
2008-07-24 13:25:18 51°25.762 2°49.309 220.8 13.6 225 23.2
2008-07-24 13:26:18 51°25.598 2°49.061 219.5 13.6 224 23.9
2008-07-24 13:27:18 51°25.434 2°48.81 218.5 13.7 223 24.6
2008-07-24 13:28:18 51°25.271 2°48.558 221.1 13.7 224 29.1
2008-07-24 13:29:18 51°25.107 2°48.306 219.4 13.6 223 29.7
2008-07-24 13:30:17 51°24.949 2°48.051 222.6 13.7 226 29.2
2008-07-24 13:31:18 51°24.786 2°47.785 221.3 13.6 224 29.2
2008-07-24 13:32:18 51°24.621 2°47.539 218.6 13.6 221 30.1
2008-07-24 13:33:18 51°24.455 2°47.293 218.9 13.5 223 29.8
2008-07-24 13:34:18 51°24.29 2°47.042 219.2 13.7 224 28.8
2008-07-24 13:35:17 51°24.122 2°46.812 204 13.1 208 29
2008-07-24 13:36:17 51°23.914 2°46.684 193.3 13.6 200 28
2008-07-24 13:37:17 51°23.704 2°46.565 193.5 13.4 201 27.1
2008-07-24 13:38:18 51°23.492 2°46.445 193.1 13.2 198 25.2
2008-07-24 13:39:18 51°23.28 2°46.38 176.6 13 183 25
2008-07-24 13:40:17 51°23.085 2°46.46 145.6 12.2 153 21.2
2008-07-24 13:41:18 51°22.905 2°46.628 143.9 12.5 152 22.6
2008-07-24 13:42:18 51°22.72 2°46.784 145.9 12.7 153 21.1
2008-07-24 13:43:18 51°22.532 2°46.937 145.5 12.6 151 19.2
2008-07-24 13:44:18 51°22.342 2°47.09 147.4 12.8 154 19.9
2008-07-24 13:45:18 51°22.154 2°47.247 147.2 12.8 155 22.9
2008-07-24 13:46:18 51°21.967 2°47.402 147.3 12.6 152 24.5
2008-07-24 13:47:18 51°21.781 2°47.557 147.2 12.6 151 24.2
2008-07-24 13:48:18 51°21.595 2°47.704 149.3 12.5 156 24
2008-07-24 13:49:18 51°21.407 2°47.848 148.6 12.5 156 23.1
2008-07-24 13:50:18 51°21.217 2°47.989 150.9 12.6 156 21.3
2008-07-24 13:51:18 51°21.026 2°48.125 149.3 12.5 155 20.7
2008-07-24 13:52:18 51°20.836 2°48.261 150.9 12.4 158 20.6
2008-07-24 13:53:17 51°20.653 2°48.387 149.4 12.1 158 21.8
2008-07-24 13:54:18 51°20.47 2°48.532 142.5 11.9 150 23
2008-07-24 13:55:18 51°20.293 2°48.681 145.2 12 152 23.2
2008-07-24 13:56:18 51°20.117 2°48.836 145.8 12.1 153 23
2008-07-24 13:57:18 51°19.939 2°48.987 146.2 12.1 152 21.2
2008-07-24 13:58:17 51°19.765 2°49.141 142 12.2 147 18.9
2008-07-24 13:59:18 51°19.594 2°49.325 140.6 12.2 147 16.4
2008-07-24 14:00:18 51°19.42 2°49.499 142.8 12.3 148 15.1
2008-07-24 14:01:18 51°19.248 2°49.675 142.5 12.3 146 13.1
2008-07-24 14:02:18 51°19.076 2°49.856 143.3 12.3 147 11.9
2008-07-24 14:03:17 51°18.912 2°50.049 139.5 12.4 143 13.3
2008-07-24 14:04:18 51°18.733 2°50.231 146.4 12.6 149 14.9
2008-07-24 14:05:17 51°18.558 2°50.408 142.6 12.6 147 15.3
2008-07-24 14:06:18 51°18.381 2°50.594 142.5 12.5 145 15
2008-07-24 14:07:18 51°18.205 2°50.771 144.4 12.6 149 14.2
2008-07-24 14:08:18 51°18.028 2°50.95 144.1 12.5 145 13.3
2008-07-24 14:09:18 51°17.854 2°51.135 143.4 12.6 145 12.1
2008-07-24 14:10:18 51°17.686 2°51.328 142.4 12.5 145 10.8
2008-07-24 14:11:18 51°17.521 2°51.527 140.5 12.4 142 10.8
2008-07-24 14:12:18 51°17.352 2°51.722 142.9 12.6 144 12.2
2008-07-24 14:13:18 51°17.18 2°51.909 144.3 12.4 146 12.2
2008-07-24 14:14:18 51°17.01 2°52.098 142.9 12.5 145 11.7
2008-07-24 14:15:18 51°16.841 2°52.293 142.1 12.5 143 11
2008-07-24 14:16:17 51°16.671 2°52.478 145 12.5 145 11.7
2008-07-24 14:17:18 51°16.497 2°52.675 144.5 12.6 145 13
2008-07-24 14:18:18 51°16.327 2°52.866 144.2 12.5 145 13.1
2008-07-24 14:19:18 51°16.152 2°53.048 147.7 12.5 146 13
2008-07-24 14:20:18 51°15.98 2°53.23 144.8 12.4 145 12.8
2008-07-24 14:21:18 51°15.811 2°53.412 146.2 12.2 147 12.5
2008-07-24 14:22:18 51°15.648 2°53.593 143.5 10.8 142 12.4
2008-07-24 14:23:18 51°15.501 2°53.762 146.1 11.7 146 11.8
2008-07-24 14:24:18 51°15.34 2°53.952 142.6 12.1 141 11.1
2008-07-24 14:25:18 51°15.19 2°54.165 140.1 12.2 139 10.8
2008-07-24 14:26:18 51°15.037 2°54.369 144.3 11.8 142 10.1
2008-07-24 14:27:18 51°14.894 2°54.549 144.3 9.5 140 11
2008-07-24 14:28:18 51°14.808 2°54.672 144.3 5.7 140 11.1
2008-07-24 14:29:18 51°14.743 2°54.761 144.3 4.8 140 11.2
2008-07-24 14:30:18 51°14.681 2°54.844 147.2 5.2 142 11.3
2008-07-24 14:31:18 51°14.573 2°54.927 163.6 8.8 159 11.4
2008-07-24 14:32:17 51°14.406 2°55.035 156 11.7 151 11.9
2008-07-24 14:33:18 51°14.263 2°55.231 125.1 10.3 128 12.3
2008-07-24 14:34:18 51°14.163 2°55.383 146.7 7.1 148 -999
2008-07-24 14:35:22 51°14.051 2°55.468 154.3 7.7 156 12.7
2008-07-24 14:36:22 51°13.938 2°55.548 154.4 6.1 155 -999
2008-07-24 14:37:22 51°13.859 2°55.602 153.9 4.9 158 -999
2008-07-24 14:38:22 51°13.781 2°55.669 140.4 5.5 143 -999
2008-07-24 14:39:22 51°13.713 2°55.773 127.5 5.3 132 -999
2008-07-24 14:40:22 51°13.667 2°55.878 121.7 4.6 123 -999
2008-07-24 14:41:22 51°13.636 2°55.971 104.8 3.2 107 -999
2008-07-24 14:42:22 51°13.627 2°56.034 108.4 1 105 -999
2008-07-24 14:43:22 51°13.623 2°56.048 120.7 0.2 130 -999
2008-07-24 14:44:22 51°13.623 2°56.048 126.4 0.2 240 -999
2008-07-24 14:45:22 51°13.623 2°56.048 127 -999 284 -999